sensor_id;sensor_type;location;lat;lon;timestamp;P1;durP1;ratioP1;P2;durP2;ratioP2
70547;SDS011;58099;43.406;3.698;2022-07-31T00:01:10;3.63;;;0.70;;
70547;SDS011;58099;43.406;3.698;2022-07-31T00:03:37;2.67;;;0.80;;
70547;SDS011;58099;43.406;3.698;2022-07-31T00:06:03;2.45;;;0.80;;
70547;SDS011;58099;43.406;3.698;2022-07-31T00:08:28;2.60;;;0.68;;
70547;SDS011;58099;43.406;3.698;2022-07-31T00:10:54;2.63;;;0.60;;
70547;SDS011;58099;43.406;3.698;2022-07-31T00:13:20;2.92;;;0.70;;
70547;SDS011;58099;43.406;3.698;2022-07-31T00:15:46;2.70;;;0.90;;
70547;SDS011;58099;43.406;3.698;2022-07-31T00:18:12;4.10;;;0.85;;
70547;SDS011;58099;43.406;3.698;2022-07-31T00:20:38;2.80;;;0.60;;
70547;SDS011;58099;43.406;3.698;2022-07-31T00:23:03;3.93;;;0.87;;
70547;SDS011;58099;43.406;3.698;2022-07-31T00:25:29;2.50;;;0.70;;
70547;SDS011;58099;43.406;3.698;2022-07-31T00:27:56;2.67;;;0.50;;
70547;SDS011;58099;43.406;3.698;2022-07-31T00:30:22;2.53;;;0.73;;
70547;SDS011;58099;43.406;3.698;2022-07-31T00:32:47;2.88;;;0.90;;
70547;SDS011;58099;43.406;3.698;2022-07-31T00:35:13;2.50;;;0.77;;
70547;SDS011;58099;43.406;3.698;2022-07-31T00:37:39;3.17;;;0.80;;
70547;SDS011;58099;43.406;3.698;2022-07-31T00:40:06;3.00;;;0.93;;
70547;SDS011;58099;43.406;3.698;2022-07-31T00:42:34;2.80;;;0.90;;
70547;SDS011;58099;43.406;3.698;2022-07-31T00:45:00;3.17;;;1.00;;
70547;SDS011;58099;43.406;3.698;2022-07-31T00:47:26;3.07;;;1.10;;
70547;SDS011;58099;43.406;3.698;2022-07-31T00:49:52;2.78;;;0.80;;
70547;SDS011;58099;43.406;3.698;2022-07-31T00:52:18;2.45;;;0.60;;
70547;SDS011;58099;43.406;3.698;2022-07-31T00:54:44;3.17;;;0.98;;
70547;SDS011;58099;43.406;3.698;2022-07-31T00:57:10;3.07;;;0.50;;
70547;SDS011;58099;43.406;3.698;2022-07-31T00:59:35;2.97;;;0.73;;
70547;SDS011;58099;43.406;3.698;2022-07-31T01:02:01;2.47;;;0.65;;
70547;SDS011;58099;43.406;3.698;2022-07-31T01:04:27;2.72;;;0.77;;
70547;SDS011;58099;43.406;3.698;2022-07-31T01:06:54;2.43;;;0.70;;
70547;SDS011;58099;43.406;3.698;2022-07-31T01:09:20;3.55;;;0.90;;
70547;SDS011;58099;43.406;3.698;2022-07-31T01:14:25;2.92;;;1.10;;
70547;SDS011;58099;43.406;3.698;2022-07-31T01:16:55;2.83;;;0.60;;
70547;SDS011;58099;43.406;3.698;2022-07-31T01:19:25;5.15;;;1.00;;
70547;SDS011;58099;43.406;3.698;2022-07-31T01:30:16;3.25;;;0.90;;
70547;SDS011;58099;43.406;3.698;2022-07-31T01:32:46;3.75;;;0.77;;
70547;SDS011;58099;43.406;3.698;2022-07-31T01:35:38;4.15;;;0.88;;
70547;SDS011;58099;43.406;3.698;2022-07-31T01:38:09;2.60;;;0.73;;
70547;SDS011;58099;43.406;3.698;2022-07-31T01:40:41;2.97;;;1.00;;
70547;SDS011;58099;43.406;3.698;2022-07-31T01:43:11;2.90;;;0.90;;
70547;SDS011;58099;43.406;3.698;2022-07-31T01:45:43;3.38;;;0.80;;
70547;SDS011;58099;43.406;3.698;2022-07-31T01:48:12;3.42;;;0.70;;
70547;SDS011;58099;43.406;3.698;2022-07-31T01:50:41;3.65;;;0.98;;
70547;SDS011;58099;43.406;3.698;2022-07-31T01:53:11;3.88;;;0.90;;
70547;SDS011;58099;43.406;3.698;2022-07-31T01:55:40;2.60;;;0.80;;
70547;SDS011;58099;43.406;3.698;2022-07-31T01:58:06;2.80;;;0.77;;
70547;SDS011;58099;43.406;3.698;2022-07-31T02:00:34;3.35;;;0.70;;
70547;SDS011;58099;43.406;3.698;2022-07-31T02:03:01;2.70;;;0.88;;
70547;SDS011;58099;43.406;3.698;2022-07-31T02:05:29;2.38;;;0.57;;
70547;SDS011;58099;43.406;3.698;2022-07-31T02:07:57;2.80;;;0.80;;
70547;SDS011;58099;43.406;3.698;2022-07-31T02:10:23;3.25;;;0.65;;
70547;SDS011;58099;43.406;3.698;2022-07-31T02:12:50;3.03;;;0.75;;
70547;SDS011;58099;43.406;3.698;2022-07-31T02:15:16;2.70;;;0.80;;
70547;SDS011;58099;43.406;3.698;2022-07-31T02:17:43;3.95;;;0.82;;
70547;SDS011;58099;43.406;3.698;2022-07-31T02:20:10;2.53;;;0.70;;
70547;SDS011;58099;43.406;3.698;2022-07-31T02:22:37;2.30;;;0.53;;
70547;SDS011;58099;43.406;3.698;2022-07-31T02:25:03;4.10;;;0.80;;
70547;SDS011;58099;43.406;3.698;2022-07-31T02:27:30;3.15;;;0.80;;
70547;SDS011;58099;43.406;3.698;2022-07-31T02:29:58;2.72;;;0.60;;
70547;SDS011;58099;43.406;3.698;2022-07-31T02:32:26;3.53;;;0.80;;
70547;SDS011;58099;43.406;3.698;2022-07-31T02:34:54;3.00;;;1.03;;
70547;SDS011;58099;43.406;3.698;2022-07-31T02:37:23;2.95;;;0.70;;
70547;SDS011;58099;43.406;3.698;2022-07-31T02:39:51;3.20;;;0.90;;
70547;SDS011;58099;43.406;3.698;2022-07-31T02:42:18;2.80;;;0.80;;
70547;SDS011;58099;43.406;3.698;2022-07-31T02:44:45;2.70;;;0.90;;
70547;SDS011;58099;43.406;3.698;2022-07-31T02:47:12;2.70;;;0.60;;
70547;SDS011;58099;43.406;3.698;2022-07-31T02:49:39;3.17;;;0.73;;
70547;SDS011;58099;43.406;3.698;2022-07-31T02:52:05;2.72;;;0.80;;
70547;SDS011;58099;43.406;3.698;2022-07-31T02:54:33;3.33;;;0.70;;
70547;SDS011;58099;43.406;3.698;2022-07-31T02:57:01;2.70;;;0.80;;
70547;SDS011;58099;43.406;3.698;2022-07-31T02:59:27;2.67;;;0.67;;
70547;SDS011;58099;43.406;3.698;2022-07-31T03:01:53;3.17;;;0.68;;
70547;SDS011;58099;43.406;3.698;2022-07-31T03:04:19;3.15;;;0.60;;
70547;SDS011;58099;43.406;3.698;2022-07-31T03:06:45;3.17;;;0.70;;
70547;SDS011;58099;43.406;3.698;2022-07-31T03:09:12;3.30;;;1.00;;
70547;SDS011;58099;43.406;3.698;2022-07-31T03:11:39;3.40;;;1.05;;
70547;SDS011;58099;43.406;3.698;2022-07-31T03:14:04;4.20;;;0.98;;
70547;SDS011;58099;43.406;3.698;2022-07-31T03:16:33;3.28;;;0.80;;
70547;SDS011;58099;43.406;3.698;2022-07-31T03:19:00;3.92;;;1.00;;
70547;SDS011;58099;43.406;3.698;2022-07-31T03:21:28;4.60;;;0.77;;
70547;SDS011;58099;43.406;3.698;2022-07-31T03:23:55;3.47;;;1.00;;
70547;SDS011;58099;43.406;3.698;2022-07-31T03:26:23;2.80;;;0.80;;
70547;SDS011;58099;43.406;3.698;2022-07-31T03:28:49;3.10;;;0.95;;
70547;SDS011;58099;43.406;3.698;2022-07-31T03:31:15;4.53;;;1.00;;
70547;SDS011;58099;43.406;3.698;2022-07-31T03:33:40;3.60;;;0.77;;
70547;SDS011;58099;43.406;3.698;2022-07-31T03:36:06;3.35;;;0.93;;
70547;SDS011;58099;43.406;3.698;2022-07-31T03:38:33;3.85;;;1.13;;
70547;SDS011;58099;43.406;3.698;2022-07-31T03:40:59;3.30;;;0.67;;
70547;SDS011;58099;43.406;3.698;2022-07-31T03:43:25;2.75;;;0.85;;
70547;SDS011;58099;43.406;3.698;2022-07-31T03:45:54;5.18;;;1.10;;
70547;SDS011;58099;43.406;3.698;2022-07-31T03:48:22;3.13;;;0.90;;
70547;SDS011;58099;43.406;3.698;2022-07-31T03:50:48;2.95;;;1.10;;
70547;SDS011;58099;43.406;3.698;2022-07-31T03:53:14;3.80;;;1.02;;
70547;SDS011;58099;43.406;3.698;2022-07-31T03:55:41;2.97;;;0.88;;
70547;SDS011;58099;43.406;3.698;2022-07-31T03:58:08;2.85;;;0.80;;
70547;SDS011;58099;43.406;3.698;2022-07-31T04:00:36;3.10;;;0.87;;
70547;SDS011;58099;43.406;3.698;2022-07-31T04:03:09;2.97;;;0.93;;
70547;SDS011;58099;43.406;3.698;2022-07-31T04:05:36;2.80;;;0.77;;
70547;SDS011;58099;43.406;3.698;2022-07-31T04:08:06;3.05;;;0.80;;
70547;SDS011;58099;43.406;3.698;2022-07-31T04:10:33;3.47;;;1.00;;
70547;SDS011;58099;43.406;3.698;2022-07-31T04:13:00;3.03;;;0.80;;
70547;SDS011;58099;43.406;3.698;2022-07-31T04:15:27;3.20;;;0.70;;
70547;SDS011;58099;43.406;3.698;2022-07-31T04:17:53;4.35;;;0.90;;
70547;SDS011;58099;43.406;3.698;2022-07-31T04:20:18;3.43;;;1.17;;
70547;SDS011;58099;43.406;3.698;2022-07-31T04:22:45;3.47;;;1.10;;
70547;SDS011;58099;43.406;3.698;2022-07-31T04:25:14;3.10;;;0.75;;
70547;SDS011;58099;43.406;3.698;2022-07-31T04:27:40;3.00;;;1.00;;
70547;SDS011;58099;43.406;3.698;2022-07-31T04:30:07;3.67;;;0.93;;
70547;SDS011;58099;43.406;3.698;2022-07-31T04:32:34;3.45;;;0.82;;
70547;SDS011;58099;43.406;3.698;2022-07-31T04:35:00;3.38;;;1.00;;
70547;SDS011;58099;43.406;3.698;2022-07-31T04:37:27;2.95;;;0.80;;
70547;SDS011;58099;43.406;3.698;2022-07-31T04:39:53;4.00;;;1.00;;
70547;SDS011;58099;43.406;3.698;2022-07-31T04:42:18;3.30;;;1.05;;
70547;SDS011;58099;43.406;3.698;2022-07-31T04:44:44;3.70;;;0.90;;
70547;SDS011;58099;43.406;3.698;2022-07-31T04:47:10;3.57;;;0.90;;
70547;SDS011;58099;43.406;3.698;2022-07-31T04:49:36;4.82;;;0.80;;
70547;SDS011;58099;43.406;3.698;2022-07-31T04:52:02;3.73;;;1.10;;
70547;SDS011;58099;43.406;3.698;2022-07-31T04:54:27;4.30;;;1.10;;
70547;SDS011;58099;43.406;3.698;2022-07-31T04:56:53;3.50;;;1.20;;
70547;SDS011;58099;43.406;3.698;2022-07-31T04:59:20;4.07;;;1.33;;
70547;SDS011;58099;43.406;3.698;2022-07-31T05:01:47;4.40;;;1.27;;
70547;SDS011;58099;43.406;3.698;2022-07-31T05:04:13;3.20;;;0.90;;
70547;SDS011;58099;43.406;3.698;2022-07-31T05:06:43;4.75;;;1.35;;
70547;SDS011;58099;43.406;3.698;2022-07-31T05:09:12;3.95;;;1.20;;
70547;SDS011;58099;43.406;3.698;2022-07-31T05:11:39;3.00;;;1.17;;
70547;SDS011;58099;43.406;3.698;2022-07-31T05:14:06;3.73;;;1.17;;
70547;SDS011;58099;43.406;3.698;2022-07-31T05:16:33;3.03;;;1.00;;
70547;SDS011;58099;43.406;3.698;2022-07-31T05:19:00;3.65;;;1.20;;
70547;SDS011;58099;43.406;3.698;2022-07-31T05:21:26;3.20;;;0.80;;
70547;SDS011;58099;43.406;3.698;2022-07-31T05:23:54;3.65;;;1.08;;
70547;SDS011;58099;43.406;3.698;2022-07-31T05:26:21;4.13;;;1.10;;
70547;SDS011;58099;43.406;3.698;2022-07-31T05:28:48;3.80;;;1.15;;
70547;SDS011;58099;43.406;3.698;2022-07-31T05:31:15;3.78;;;1.30;;
70547;SDS011;58099;43.406;3.698;2022-07-31T05:33:42;3.13;;;1.00;;
70547;SDS011;58099;43.406;3.698;2022-07-31T05:36:09;3.83;;;0.93;;
70547;SDS011;58099;43.406;3.698;2022-07-31T05:38:35;3.77;;;1.10;;
70547;SDS011;58099;43.406;3.698;2022-07-31T05:41:00;3.30;;;1.08;;
70547;SDS011;58099;43.406;3.698;2022-07-31T05:43:26;3.20;;;1.10;;
70547;SDS011;58099;43.406;3.698;2022-07-31T05:45:52;2.90;;;1.05;;
70547;SDS011;58099;43.406;3.698;2022-07-31T05:48:18;3.45;;;0.90;;
70547;SDS011;58099;43.406;3.698;2022-07-31T05:50:44;3.70;;;0.90;;
70547;SDS011;58099;43.406;3.698;2022-07-31T05:53:11;3.53;;;1.10;;
70547;SDS011;58099;43.406;3.698;2022-07-31T05:55:39;3.58;;;1.20;;
70547;SDS011;58099;43.406;3.698;2022-07-31T05:58:06;4.00;;;1.40;;
70547;SDS011;58099;43.406;3.698;2022-07-31T06:00:32;3.75;;;1.55;;
70547;SDS011;58099;43.406;3.698;2022-07-31T06:02:58;3.83;;;1.30;;
70547;SDS011;58099;43.406;3.698;2022-07-31T06:05:25;3.78;;;1.00;;
70547;SDS011;58099;43.406;3.698;2022-07-31T06:07:51;4.75;;;1.50;;
70547;SDS011;58099;43.406;3.698;2022-07-31T06:10:17;3.87;;;1.20;;
70547;SDS011;58099;43.406;3.698;2022-07-31T06:12:43;4.00;;;1.10;;
70547;SDS011;58099;43.406;3.698;2022-07-31T06:15:09;3.60;;;1.10;;
70547;SDS011;58099;43.406;3.698;2022-07-31T06:17:36;3.40;;;1.17;;
70547;SDS011;58099;43.406;3.698;2022-07-31T06:20:03;3.70;;;1.13;;
70547;SDS011;58099;43.406;3.698;2022-07-31T06:22:29;2.92;;;0.90;;
70547;SDS011;58099;43.406;3.698;2022-07-31T06:24:55;3.40;;;1.20;;
70547;SDS011;58099;43.406;3.698;2022-07-31T06:27:21;4.18;;;0.93;;
70547;SDS011;58099;43.406;3.698;2022-07-31T06:29:47;3.90;;;1.30;;
70547;SDS011;58099;43.406;3.698;2022-07-31T06:32:13;4.00;;;1.17;;
70547;SDS011;58099;43.406;3.698;2022-07-31T06:34:39;5.10;;;1.50;;
70547;SDS011;58099;43.406;3.698;2022-07-31T06:37:05;4.10;;;1.35;;
70547;SDS011;58099;43.406;3.698;2022-07-31T06:39:31;3.47;;;1.33;;
70547;SDS011;58099;43.406;3.698;2022-07-31T06:41:58;3.60;;;1.20;;
70547;SDS011;58099;43.406;3.698;2022-07-31T06:44:23;4.53;;;1.38;;
70547;SDS011;58099;43.406;3.698;2022-07-31T06:46:49;3.97;;;1.23;;
70547;SDS011;58099;43.406;3.698;2022-07-31T06:49:16;3.75;;;1.50;;
70547;SDS011;58099;43.406;3.698;2022-07-31T06:51:42;4.47;;;1.50;;
70547;SDS011;58099;43.406;3.698;2022-07-31T06:54:08;3.30;;;1.30;;
70547;SDS011;58099;43.406;3.698;2022-07-31T06:56:35;3.58;;;1.38;;
70547;SDS011;58099;43.406;3.698;2022-07-31T06:59:02;4.65;;;1.60;;
70547;SDS011;58099;43.406;3.698;2022-07-31T07:01:29;3.90;;;1.25;;
70547;SDS011;58099;43.406;3.698;2022-07-31T07:03:55;3.70;;;1.10;;
70547;SDS011;58099;43.406;3.698;2022-07-31T07:06:21;3.00;;;0.73;;
70547;SDS011;58099;43.406;3.698;2022-07-31T07:08:47;3.20;;;1.15;;
70547;SDS011;58099;43.406;3.698;2022-07-31T07:11:13;4.18;;;1.02;;
70547;SDS011;58099;43.406;3.698;2022-07-31T07:13:39;3.57;;;1.50;;
70547;SDS011;58099;43.406;3.698;2022-07-31T07:16:05;4.32;;;1.40;;
70547;SDS011;58099;43.406;3.698;2022-07-31T07:18:31;3.60;;;1.27;;
70547;SDS011;58099;43.406;3.698;2022-07-31T07:20:57;4.10;;;1.27;;
70547;SDS011;58099;43.406;3.698;2022-07-31T07:23:23;3.70;;;1.27;;
70547;SDS011;58099;43.406;3.698;2022-07-31T07:25:49;3.78;;;1.48;;
70547;SDS011;58099;43.406;3.698;2022-07-31T07:28:15;3.92;;;1.65;;
70547;SDS011;58099;43.406;3.698;2022-07-31T07:30:42;3.85;;;1.55;;
70547;SDS011;58099;43.406;3.698;2022-07-31T07:33:08;3.92;;;1.50;;
70547;SDS011;58099;43.406;3.698;2022-07-31T07:35:33;3.28;;;1.17;;
70547;SDS011;58099;43.406;3.698;2022-07-31T07:38:00;3.17;;;1.40;;
70547;SDS011;58099;43.406;3.698;2022-07-31T07:40:26;3.75;;;1.52;;
70547;SDS011;58099;43.406;3.698;2022-07-31T07:42:53;3.78;;;1.70;;
70547;SDS011;58099;43.406;3.698;2022-07-31T07:45:19;4.40;;;1.45;;
70547;SDS011;58099;43.406;3.698;2022-07-31T07:47:45;4.43;;;1.77;;
70547;SDS011;58099;43.406;3.698;2022-07-31T07:50:11;5.10;;;1.80;;
70547;SDS011;58099;43.406;3.698;2022-07-31T07:52:39;3.63;;;1.40;;
70547;SDS011;58099;43.406;3.698;2022-07-31T07:55:06;3.77;;;1.47;;
70547;SDS011;58099;43.406;3.698;2022-07-31T07:57:33;4.53;;;1.55;;
70547;SDS011;58099;43.406;3.698;2022-07-31T08:00:00;3.20;;;1.52;;
70547;SDS011;58099;43.406;3.698;2022-07-31T08:02:30;3.30;;;1.55;;
70547;SDS011;58099;43.406;3.698;2022-07-31T08:04:56;3.80;;;1.77;;
70547;SDS011;58099;43.406;3.698;2022-07-31T08:07:26;3.75;;;1.63;;
70547;SDS011;58099;43.406;3.698;2022-07-31T08:09:53;4.22;;;1.50;;
70547;SDS011;58099;43.406;3.698;2022-07-31T08:12:19;5.07;;;1.42;;
70547;SDS011;58099;43.406;3.698;2022-07-31T08:14:45;3.80;;;1.83;;
70547;SDS011;58099;43.406;3.698;2022-07-31T08:17:11;4.22;;;1.45;;
70547;SDS011;58099;43.406;3.698;2022-07-31T08:19:37;3.83;;;1.77;;
70547;SDS011;58099;43.406;3.698;2022-07-31T08:22:03;4.83;;;1.63;;
70547;SDS011;58099;43.406;3.698;2022-07-31T08:24:29;4.55;;;1.48;;
70547;SDS011;58099;43.406;3.698;2022-07-31T08:26:54;4.57;;;1.40;;
70547;SDS011;58099;43.406;3.698;2022-07-31T08:29:39;3.47;;;2.05;;
70547;SDS011;58099;43.406;3.698;2022-07-31T08:32:04;3.70;;;1.80;;
70547;SDS011;58099;43.406;3.698;2022-07-31T08:34:30;4.65;;;1.70;;
70547;SDS011;58099;43.406;3.698;2022-07-31T08:36:56;4.40;;;1.77;;
70547;SDS011;58099;43.406;3.698;2022-07-31T08:39:22;3.60;;;1.83;;
70547;SDS011;58099;43.406;3.698;2022-07-31T08:41:48;3.67;;;1.80;;
70547;SDS011;58099;43.406;3.698;2022-07-31T08:44:14;4.28;;;2.08;;
70547;SDS011;58099;43.406;3.698;2022-07-31T08:46:42;3.20;;;1.75;;
70547;SDS011;58099;43.406;3.698;2022-07-31T08:49:09;4.27;;;1.60;;
70547;SDS011;58099;43.406;3.698;2022-07-31T08:51:40;4.32;;;2.10;;
70547;SDS011;58099;43.406;3.698;2022-07-31T08:54:10;4.40;;;2.10;;
70547;SDS011;58099;43.406;3.698;2022-07-31T08:56:37;4.05;;;2.10;;
70547;SDS011;58099;43.406;3.698;2022-07-31T08:59:06;4.00;;;2.25;;
70547;SDS011;58099;43.406;3.698;2022-07-31T09:01:33;3.83;;;2.00;;
70547;SDS011;58099;43.406;3.698;2022-07-31T09:03:59;3.53;;;1.80;;
70547;SDS011;58099;43.406;3.698;2022-07-31T09:06:25;4.53;;;2.13;;
70547;SDS011;58099;43.406;3.698;2022-07-31T09:08:51;5.65;;;2.80;;
70547;SDS011;58099;43.406;3.698;2022-07-31T09:11:20;5.03;;;2.40;;
70547;SDS011;58099;43.406;3.698;2022-07-31T09:13:53;4.32;;;2.08;;
70547;SDS011;58099;43.406;3.698;2022-07-31T09:16:22;4.82;;;2.35;;
70547;SDS011;58099;43.406;3.698;2022-07-31T09:19:01;5.00;;;2.50;;
70547;SDS011;58099;43.406;3.698;2022-07-31T09:21:38;4.53;;;2.10;;
70547;SDS011;58099;43.406;3.698;2022-07-31T09:24:10;4.32;;;2.50;;
70547;SDS011;58099;43.406;3.698;2022-07-31T09:26:38;4.15;;;2.10;;
70547;SDS011;58099;43.406;3.698;2022-07-31T09:29:07;4.75;;;2.17;;
70547;SDS011;58099;43.406;3.698;2022-07-31T09:31:35;3.83;;;2.35;;
70547;SDS011;58099;43.406;3.698;2022-07-31T09:34:02;4.60;;;2.40;;
70547;SDS011;58099;43.406;3.698;2022-07-31T09:36:28;4.90;;;2.90;;
70547;SDS011;58099;43.406;3.698;2022-07-31T09:38:55;4.63;;;2.15;;
70547;SDS011;58099;43.406;3.698;2022-07-31T09:41:21;4.20;;;2.50;;
70547;SDS011;58099;43.406;3.698;2022-07-31T09:43:54;3.38;;;2.45;;
70547;SDS011;58099;43.406;3.698;2022-07-31T09:46:23;3.63;;;2.22;;
70547;SDS011;58099;43.406;3.698;2022-07-31T09:48:53;5.38;;;2.17;;
70547;SDS011;58099;43.406;3.698;2022-07-31T09:51:24;3.90;;;2.17;;
70547;SDS011;58099;43.406;3.698;2022-07-31T09:53:50;4.40;;;2.17;;
70547;SDS011;58099;43.406;3.698;2022-07-31T09:56:30;4.63;;;2.27;;
70547;SDS011;58099;43.406;3.698;2022-07-31T09:58:57;4.68;;;2.15;;
70547;SDS011;58099;43.406;3.698;2022-07-31T10:01:23;4.88;;;2.20;;
70547;SDS011;58099;43.406;3.698;2022-07-31T10:03:50;4.35;;;2.53;;
70547;SDS011;58099;43.406;3.698;2022-07-31T10:06:18;3.53;;;2.20;;
70547;SDS011;58099;43.406;3.698;2022-07-31T10:08:45;3.73;;;2.00;;
70547;SDS011;58099;43.406;3.698;2022-07-31T10:11:16;4.28;;;2.25;;
70547;SDS011;58099;43.406;3.698;2022-07-31T10:13:44;4.63;;;2.90;;
70547;SDS011;58099;43.406;3.698;2022-07-31T10:16:12;4.43;;;2.42;;
70547;SDS011;58099;43.406;3.698;2022-07-31T10:18:40;5.03;;;2.47;;
70547;SDS011;58099;43.406;3.698;2022-07-31T10:21:07;4.07;;;2.60;;
70547;SDS011;58099;43.406;3.698;2022-07-31T10:23:38;3.25;;;2.15;;
70547;SDS011;58099;43.406;3.698;2022-07-31T10:26:05;4.00;;;2.40;;
70547;SDS011;58099;43.406;3.698;2022-07-31T10:28:31;3.22;;;2.38;;
70547;SDS011;58099;43.406;3.698;2022-07-31T10:31:03;4.50;;;2.05;;
70547;SDS011;58099;43.406;3.698;2022-07-31T10:33:30;4.30;;;2.73;;
70547;SDS011;58099;43.406;3.698;2022-07-31T10:36:02;3.40;;;2.33;;
70547;SDS011;58099;43.406;3.698;2022-07-31T10:46:55;5.47;;;2.87;;
70547;SDS011;58099;43.406;3.698;2022-07-31T10:49:41;5.28;;;2.53;;
70547;SDS011;58099;43.406;3.698;2022-07-31T10:52:07;6.40;;;3.35;;
70547;SDS011;58099;43.406;3.698;2022-07-31T10:57:06;6.82;;;3.05;;
70547;SDS011;58099;43.406;3.698;2022-07-31T10:59:32;6.88;;;2.83;;
70547;SDS011;58099;43.406;3.698;2022-07-31T11:01:57;5.97;;;2.63;;
70547;SDS011;58099;43.406;3.698;2022-07-31T11:04:30;4.93;;;2.47;;
70547;SDS011;58099;43.406;3.698;2022-07-31T11:06:56;7.25;;;2.55;;
70547;SDS011;58099;43.406;3.698;2022-07-31T11:09:23;6.35;;;2.60;;
70547;SDS011;58099;43.406;3.698;2022-07-31T11:11:50;4.78;;;2.38;;
70547;SDS011;58099;43.406;3.698;2022-07-31T11:14:16;4.70;;;1.97;;
70547;SDS011;58099;43.406;3.698;2022-07-31T11:16:49;3.67;;;1.92;;
70547;SDS011;58099;43.406;3.698;2022-07-31T11:19:15;5.90;;;2.78;;
70547;SDS011;58099;43.406;3.698;2022-07-31T11:21:41;4.47;;;2.23;;
70547;SDS011;58099;43.406;3.698;2022-07-31T11:24:11;5.50;;;2.60;;
70547;SDS011;58099;43.406;3.698;2022-07-31T11:26:40;4.80;;;2.67;;
70547;SDS011;58099;43.406;3.698;2022-07-31T11:29:24;5.35;;;2.47;;
70547;SDS011;58099;43.406;3.698;2022-07-31T11:34:30;3.97;;;2.40;;
70547;SDS011;58099;43.406;3.698;2022-07-31T11:37:07;3.97;;;2.70;;
70547;SDS011;58099;43.406;3.698;2022-07-31T11:39:33;4.78;;;2.20;;
70547;SDS011;58099;43.406;3.698;2022-07-31T11:42:01;4.70;;;2.10;;
70547;SDS011;58099;43.406;3.698;2022-07-31T11:44:27;3.83;;;2.08;;
70547;SDS011;58099;43.406;3.698;2022-07-31T11:46:53;4.60;;;1.90;;
70547;SDS011;58099;43.406;3.698;2022-07-31T11:49:20;5.88;;;1.95;;
70547;SDS011;58099;43.406;3.698;2022-07-31T11:51:47;5.40;;;2.83;;
70547;SDS011;58099;43.406;3.698;2022-07-31T11:54:22;5.07;;;2.53;;
70547;SDS011;58099;43.406;3.698;2022-07-31T11:56:51;4.15;;;2.38;;
70547;SDS011;58099;43.406;3.698;2022-07-31T11:59:18;4.97;;;2.55;;
70547;SDS011;58099;43.406;3.698;2022-07-31T12:02:07;3.78;;;2.22;;
70547;SDS011;58099;43.406;3.698;2022-07-31T12:04:37;5.47;;;2.70;;
70547;SDS011;58099;43.406;3.698;2022-07-31T12:07:04;5.53;;;2.60;;
70547;SDS011;58099;43.406;3.698;2022-07-31T12:09:36;4.38;;;2.50;;
70547;SDS011;58099;43.406;3.698;2022-07-31T12:12:02;4.30;;;2.40;;
70547;SDS011;58099;43.406;3.698;2022-07-31T12:14:33;4.80;;;2.50;;
70547;SDS011;58099;43.406;3.698;2022-07-31T12:17:00;4.35;;;2.58;;
70547;SDS011;58099;43.406;3.698;2022-07-31T12:19:36;4.20;;;2.53;;
70547;SDS011;58099;43.406;3.698;2022-07-31T12:22:14;6.22;;;2.45;;
70547;SDS011;58099;43.406;3.698;2022-07-31T12:24:42;6.70;;;3.13;;
70547;SDS011;58099;43.406;3.698;2022-07-31T12:27:12;5.03;;;2.77;;
70547;SDS011;58099;43.406;3.698;2022-07-31T12:29:39;5.28;;;2.40;;
70547;SDS011;58099;43.406;3.698;2022-07-31T12:32:05;4.68;;;2.45;;
70547;SDS011;58099;43.406;3.698;2022-07-31T12:34:32;4.63;;;3.00;;
70547;SDS011;58099;43.406;3.698;2022-07-31T12:37:09;4.20;;;2.40;;
70547;SDS011;58099;43.406;3.698;2022-07-31T12:39:36;4.18;;;2.47;;
70547;SDS011;58099;43.406;3.698;2022-07-31T12:42:20;5.03;;;2.45;;
70547;SDS011;58099;43.406;3.698;2022-07-31T12:44:58;5.10;;;2.35;;
70547;SDS011;58099;43.406;3.698;2022-07-31T12:47:29;5.38;;;2.35;;
70547;SDS011;58099;43.406;3.698;2022-07-31T12:49:57;5.60;;;2.03;;
70547;SDS011;58099;43.406;3.698;2022-07-31T12:52:27;6.05;;;2.17;;
70547;SDS011;58099;43.406;3.698;2022-07-31T12:55:00;4.25;;;2.40;;
70547;SDS011;58099;43.406;3.698;2022-07-31T12:57:29;5.30;;;2.30;;
70547;SDS011;58099;43.406;3.698;2022-07-31T12:59:55;4.93;;;2.17;;
70547;SDS011;58099;43.406;3.698;2022-07-31T13:02:21;5.70;;;2.23;;
70547;SDS011;58099;43.406;3.698;2022-07-31T13:04:46;6.23;;;2.23;;
70547;SDS011;58099;43.406;3.698;2022-07-31T13:07:12;4.53;;;2.40;;
70547;SDS011;58099;43.406;3.698;2022-07-31T13:09:39;8.48;;;3.00;;
70547;SDS011;58099;43.406;3.698;2022-07-31T13:12:04;4.77;;;2.60;;
70547;SDS011;58099;43.406;3.698;2022-07-31T13:14:31;4.82;;;2.45;;
70547;SDS011;58099;43.406;3.698;2022-07-31T13:16:57;5.03;;;2.38;;
70547;SDS011;58099;43.406;3.698;2022-07-31T13:19:23;4.75;;;2.40;;
70547;SDS011;58099;43.406;3.698;2022-07-31T13:21:48;5.10;;;2.40;;
70547;SDS011;58099;43.406;3.698;2022-07-31T13:24:14;4.78;;;1.80;;
70547;SDS011;58099;43.406;3.698;2022-07-31T13:26:40;3.90;;;2.20;;
70547;SDS011;58099;43.406;3.698;2022-07-31T13:29:09;4.00;;;2.15;;
70547;SDS011;58099;43.406;3.698;2022-07-31T13:31:34;4.07;;;2.33;;
70547;SDS011;58099;43.406;3.698;2022-07-31T13:34:00;5.40;;;2.65;;
70547;SDS011;58099;43.406;3.698;2022-07-31T13:36:26;5.13;;;2.47;;
70547;SDS011;58099;43.406;3.698;2022-07-31T13:38:51;4.72;;;2.80;;
70547;SDS011;58099;43.406;3.698;2022-07-31T13:41:17;4.10;;;2.40;;
70547;SDS011;58099;43.406;3.698;2022-07-31T13:43:48;5.20;;;2.15;;
70547;SDS011;58099;43.406;3.698;2022-07-31T13:46:15;4.68;;;2.38;;
70547;SDS011;58099;43.406;3.698;2022-07-31T13:48:41;4.28;;;2.35;;
70547;SDS011;58099;43.406;3.698;2022-07-31T13:51:06;4.60;;;1.90;;
70547;SDS011;58099;43.406;3.698;2022-07-31T13:53:32;4.38;;;2.10;;
70547;SDS011;58099;43.406;3.698;2022-07-31T13:55:58;4.72;;;2.50;;
70547;SDS011;58099;43.406;3.698;2022-07-31T13:58:24;4.10;;;2.45;;
70547;SDS011;58099;43.406;3.698;2022-07-31T14:00:54;5.50;;;2.78;;
70547;SDS011;58099;43.406;3.698;2022-07-31T14:03:21;4.03;;;2.38;;
70547;SDS011;58099;43.406;3.698;2022-07-31T14:05:47;4.17;;;2.10;;
70547;SDS011;58099;43.406;3.698;2022-07-31T14:08:13;5.65;;;2.17;;
70547;SDS011;58099;43.406;3.698;2022-07-31T14:10:39;5.10;;;2.50;;
70547;SDS011;58099;43.406;3.698;2022-07-31T14:13:05;4.75;;;2.47;;
70547;SDS011;58099;43.406;3.698;2022-07-31T14:15:31;4.13;;;2.30;;
70547;SDS011;58099;43.406;3.698;2022-07-31T14:17:57;5.68;;;1.95;;
70547;SDS011;58099;43.406;3.698;2022-07-31T14:20:23;4.33;;;1.83;;
70547;SDS011;58099;43.406;3.698;2022-07-31T14:22:50;4.35;;;2.00;;
70547;SDS011;58099;43.406;3.698;2022-07-31T14:25:17;4.72;;;2.53;;
70547;SDS011;58099;43.406;3.698;2022-07-31T14:27:42;4.80;;;2.30;;
70547;SDS011;58099;43.406;3.698;2022-07-31T14:30:10;5.28;;;2.60;;
70547;SDS011;58099;43.406;3.698;2022-07-31T14:32:37;5.00;;;2.58;;
70547;SDS011;58099;43.406;3.698;2022-07-31T14:35:03;5.20;;;2.22;;
70547;SDS011;58099;43.406;3.698;2022-07-31T14:37:29;4.65;;;2.50;;
70547;SDS011;58099;43.406;3.698;2022-07-31T14:39:55;4.03;;;1.80;;
70547;SDS011;58099;43.406;3.698;2022-07-31T14:42:21;4.88;;;2.15;;
70547;SDS011;58099;43.406;3.698;2022-07-31T14:44:46;5.40;;;2.37;;
70547;SDS011;58099;43.406;3.698;2022-07-31T14:47:12;4.13;;;2.15;;
70547;SDS011;58099;43.406;3.698;2022-07-31T14:49:38;3.92;;;2.28;;
70547;SDS011;58099;43.406;3.698;2022-07-31T14:52:05;4.57;;;2.42;;
70547;SDS011;58099;43.406;3.698;2022-07-31T14:54:31;4.75;;;2.10;;
70547;SDS011;58099;43.406;3.698;2022-07-31T14:56:57;4.47;;;2.20;;
70547;SDS011;58099;43.406;3.698;2022-07-31T14:59:26;5.05;;;2.10;;
70547;SDS011;58099;43.406;3.698;2022-07-31T15:01:55;5.60;;;2.40;;
70547;SDS011;58099;43.406;3.698;2022-07-31T15:04:21;4.68;;;2.47;;
70547;SDS011;58099;43.406;3.698;2022-07-31T15:06:47;5.15;;;2.33;;
70547;SDS011;58099;43.406;3.698;2022-07-31T15:09:13;4.97;;;2.33;;
70547;SDS011;58099;43.406;3.698;2022-07-31T15:11:39;4.72;;;2.13;;
70547;SDS011;58099;43.406;3.698;2022-07-31T15:14:04;5.13;;;2.03;;